createdAt,value
2019-03-24T00:01:40.702Z,50.95
2019-03-24T00:04:05.259Z,50.98
2019-03-24T00:06:37.026Z,50.99
2019-03-24T00:09:09.059Z,50.99
2019-03-24T00:11:40.864Z,51.00
2019-03-24T00:14:12.628Z,51.02
2019-03-24T00:16:44.400Z,51.01
2019-03-24T00:19:16.165Z,51.04
2019-03-24T00:21:47.871Z,51.08
2019-03-24T00:24:19.630Z,51.06
2019-03-24T00:26:51.419Z,51.07
2019-03-24T00:29:23.127Z,51.11
2019-03-24T00:31:54.923Z,51.15
2019-03-24T00:34:26.662Z,51.17
2019-03-24T00:36:58.548Z,51.18
2019-03-24T00:39:30.213Z,51.21
2019-03-24T00:42:01.983Z,51.23
2019-03-24T00:44:33.718Z,51.25
2019-03-24T00:47:05.601Z,51.24
2019-03-24T00:49:37.369Z,51.21
2019-03-24T00:52:09.148Z,51.18
2019-03-24T00:54:40.961Z,51.22
2019-03-24T00:57:12.811Z,51.20
2019-03-24T00:59:44.597Z,51.22
2019-03-24T01:02:16.293Z,51.20
2019-03-24T01:04:48.070Z,51.19
2019-03-24T01:07:19.814Z,51.23
2019-03-24T01:09:51.483Z,51.26
2019-03-24T01:12:23.231Z,51.36
2019-03-24T01:14:54.924Z,51.36
2019-03-24T01:17:26.654Z,51.40
2019-03-24T01:19:58.364Z,51.47
2019-03-24T01:22:30.069Z,51.53
2019-03-24T01:25:01.766Z,51.57
2019-03-24T01:27:33.522Z,51.57
2019-03-24T01:30:05.996Z,51.60
2019-03-24T01:32:37.687Z,51.62
2019-03-24T01:35:10.662Z,51.65
2019-03-24T01:37:42.387Z,51.65
2019-03-24T01:40:14.092Z,51.67
2019-03-24T01:42:45.831Z,51.71
2019-03-24T01:45:17.591Z,51.74
2019-03-24T01:47:49.488Z,51.77
2019-03-24T01:50:21.172Z,51.76
2019-03-24T01:52:52.907Z,51.81
2019-03-24T01:55:24.603Z,51.87
2019-03-24T06:14:04.641Z,53.76
2019-03-24T06:16:38.003Z,53.77
2019-03-24T06:19:09.791Z,53.78
2019-03-24T06:21:41.569Z,53.81
2019-03-24T06:24:13.296Z,53.85
2019-03-24T06:26:45.070Z,53.88
2019-03-24T06:29:17.079Z,53.95
2019-03-24T06:31:48.910Z,53.97
2019-03-24T06:34:20.846Z,54.03
2019-03-24T06:36:52.584Z,54.11
2019-03-24T06:39:24.354Z,54.11
2019-03-24T06:41:56.081Z,54.14
2019-03-24T06:44:27.762Z,54.19
2019-03-24T06:46:59.537Z,54.23
2019-03-24T06:49:31.272Z,54.27
2019-03-24T06:52:02.953Z,54.31
2019-03-24T06:54:34.676Z,54.33
2019-03-24T06:57:06.596Z,54.35
2019-03-24T06:59:38.280Z,54.36
2019-03-24T07:02:10.180Z,54.38
2019-03-24T07:04:42.315Z,54.39
2019-03-24T07:07:14.122Z,54.36
2019-03-24T07:09:45.931Z,54.37
2019-03-24T07:12:17.686Z,54.38
2019-03-24T07:14:49.468Z,54.37
2019-03-24T07:17:21.362Z,54.36
2019-03-24T07:19:53.099Z,54.37
2019-03-24T07:22:24.839Z,54.36
2019-03-24T07:24:56.723Z,54.33
2019-03-24T07:27:28.565Z,54.33
2019-03-24T07:30:00.666Z,54.30
2019-03-24T07:32:32.592Z,54.26
2019-03-24T07:35:04.484Z,54.22
2019-03-24T07:37:36.291Z,54.19
2019-03-24T07:40:09.315Z,54.17
2019-03-24T07:42:41.109Z,54.17
2019-03-24T07:45:13.122Z,54.12
2019-03-24T07:47:44.918Z,54.10
2019-03-24T07:50:16.739Z,54.05
2019-03-24T07:52:48.599Z,54.02
2019-03-24T07:55:20.410Z,53.98
2019-03-24T07:57:52.168Z,53.96
2019-03-24T08:00:34.529Z,53.94
2019-03-24T08:03:06.474Z,53.94
2019-03-24T08:05:38.352Z,53.95
2019-03-24T08:08:10.243Z,53.95
2019-03-24T08:10:41.997Z,53.89
2019-03-24T08:13:13.760Z,53.87
2019-03-24T08:15:45.495Z,53.84
2019-03-24T08:18:17.291Z,53.81
2019-03-24T08:20:49.024Z,53.79
2019-03-24T08:23:20.889Z,53.72
2019-03-24T08:25:52.643Z,53.66
2019-03-24T08:28:24.459Z,53.61
2019-03-24T08:30:56.180Z,53.53
2019-03-24T08:33:27.939Z,53.49
2019-03-24T08:35:59.755Z,53.41
2019-03-24T08:38:31.489Z,53.29
2019-03-24T08:41:03.376Z,53.26
2019-03-24T08:43:36.396Z,53.27
2019-03-24T08:46:08.168Z,53.26
2019-03-24T08:48:41.023Z,53.23
2019-03-24T08:51:14.263Z,53.19
2019-03-24T08:53:46.118Z,53.13
2019-03-24T08:56:17.909Z,53.06
2019-03-24T08:58:49.657Z,53.02
2019-03-24T09:01:21.401Z,53.00
2019-03-24T09:03:53.475Z,52.99
2019-03-24T09:06:25.362Z,52.95
2019-03-24T09:08:57.143Z,52.88
2019-03-24T09:11:31.409Z,52.74
2019-03-24T09:14:03.094Z,52.73
2019-03-24T09:16:35.042Z,52.71
2019-03-24T09:19:06.754Z,52.71
2019-03-24T09:21:38.526Z,52.73
2019-03-24T09:24:10.329Z,52.68
2019-03-24T09:26:42.088Z,52.58
2019-03-24T09:29:13.902Z,52.61
2019-03-24T09:31:45.575Z,52.60
2019-03-24T09:34:17.382Z,52.58
2019-03-24T09:36:49.180Z,52.50
2019-03-24T09:39:20.955Z,52.43
2019-03-24T09:41:52.730Z,52.34
2019-03-24T09:44:24.469Z,52.25
2019-03-24T09:46:56.228Z,52.13
2019-03-24T09:49:27.962Z,52.02
2019-03-24T09:51:59.699Z,51.92
2019-03-24T09:54:31.382Z,51.81
2019-03-24T09:57:03.167Z,51.75
2019-03-24T09:59:35.173Z,51.71
2019-03-24T10:02:06.915Z,51.68
2019-03-24T10:04:38.743Z,51.62
2019-03-24T10:07:10.477Z,51.56
2019-03-24T10:09:42.190Z,51.47
2019-03-24T10:12:14.010Z,51.30
2019-03-24T10:14:45.748Z,51.15
2019-03-24T10:17:17.382Z,51.01
2019-03-24T10:19:49.170Z,50.95
2019-03-24T10:22:21.003Z,50.82
2019-03-24T10:24:52.854Z,50.49
2019-03-24T10:27:24.537Z,50.42
2019-03-24T12:29:39.353Z,45.02
2019-03-24T12:32:11.095Z,44.18
2019-03-24T12:34:43.123Z,44.58
2019-03-24T12:37:14.916Z,44.55
2019-03-24T12:39:47.746Z,44.78
2019-03-24T12:42:19.557Z,44.82
2019-03-24T12:44:51.520Z,44.50
2019-03-24T12:47:23.381Z,44.89
2019-03-24T12:50:09.090Z,44.60
2019-03-24T12:52:39.037Z,44.33
2019-03-24T12:55:10.903Z,43.90
2019-03-24T12:57:44.166Z,43.93
2019-03-24T13:00:31.912Z,43.97
2019-03-24T13:03:04.822Z,44.08
2019-03-24T13:05:36.868Z,43.41
2019-03-24T13:08:16.371Z,42.60
2019-03-24T13:10:48.498Z,41.64
2019-03-24T13:13:20.280Z,41.23
2019-03-24T13:15:52.059Z,41.11
2019-03-24T13:18:23.949Z,40.99
2019-03-24T13:20:55.877Z,40.93
2019-03-24T13:23:27.612Z,41.25
2019-03-24T13:25:59.407Z,41.51
2019-03-24T13:28:31.190Z,41.19
2019-03-24T13:31:03.014Z,41.27
2019-03-24T13:33:34.785Z,41.26
2019-03-24T13:36:10.856Z,41.21
2019-03-24T13:38:42.619Z,41.15
2019-03-24T13:41:14.476Z,41.15
2019-03-24T13:43:46.276Z,41.09
2019-03-24T13:46:18.059Z,41.19
2019-03-24T13:48:49.848Z,40.55
2019-03-24T13:51:22.593Z,40.92
2019-03-24T13:53:54.356Z,40.74
2019-03-24T13:56:26.106Z,40.81
2019-03-24T13:58:57.866Z,40.82
2019-03-24T14:01:29.692Z,41.11
2019-03-24T14:04:01.507Z,41.20
2019-03-24T14:06:34.967Z,41.28
2019-03-24T14:09:08.651Z,41.32
2019-03-24T14:11:40.561Z,41.23
2019-03-24T14:14:12.353Z,41.13
2019-03-24T14:16:46.504Z,41.16
2019-03-24T14:19:17.613Z,41.14
2019-03-24T14:21:50.304Z,41.11
2019-03-24T14:24:22.028Z,41.11
2019-03-24T14:26:53.790Z,41.06
2019-03-24T14:29:27.201Z,40.97
2019-03-24T14:31:59.172Z,41.09
2019-03-24T14:34:30.965Z,41.13
2019-03-24T14:37:03.406Z,41.14
2019-03-24T14:39:35.464Z,41.19
2019-03-24T14:42:07.477Z,41.24
2019-03-24T14:44:39.311Z,41.33
2019-03-24T14:47:11.165Z,41.43
2019-03-24T14:49:43.120Z,41.50
2019-03-24T14:52:14.899Z,41.45
2019-03-24T14:54:46.578Z,41.48
2019-03-24T14:57:18.341Z,41.48
2019-03-24T14:59:50.083Z,41.44
2019-03-24T15:02:21.864Z,41.44
2019-03-24T15:04:53.554Z,41.51
2019-03-24T15:07:25.340Z,41.52
2019-03-24T15:09:57.054Z,41.46
2019-03-24T15:12:28.815Z,41.40
2019-03-24T15:15:00.619Z,41.35
2019-03-24T15:17:32.360Z,41.38
2019-03-24T15:20:04.294Z,41.38
2019-03-24T15:22:36.018Z,41.27
2019-03-24T15:25:07.889Z,41.11
2019-03-24T15:27:39.692Z,41.25
2019-03-24T15:30:11.805Z,41.31
2019-03-24T15:32:43.940Z,41.30
2019-03-24T15:35:15.864Z,41.27
2019-03-24T15:37:52.314Z,41.37
2019-03-24T15:40:24.294Z,41.37
2019-03-24T15:42:56.074Z,41.48
2019-03-24T15:45:27.795Z,41.41
2019-03-24T15:47:59.574Z,41.43
2019-03-24T15:50:31.336Z,41.40
2019-03-24T15:53:03.196Z,41.43
2019-03-24T15:55:34.910Z,41.22
2019-03-24T15:58:06.678Z,41.25
2019-03-24T16:00:48.491Z,41.29
2019-03-24T16:03:20.250Z,41.35
2019-03-24T16:05:52.073Z,41.37
2019-03-24T16:08:23.802Z,41.36
2019-03-24T16:10:55.566Z,41.30
2019-03-24T16:13:28.245Z,41.21
2019-03-24T16:16:00.041Z,41.17
2019-03-24T16:18:31.890Z,41.11
2019-03-24T16:21:03.742Z,41.02
2019-03-24T16:23:35.475Z,41.01
2019-03-24T16:26:07.200Z,40.99
2019-03-24T16:28:39.114Z,40.79
2019-03-24T16:31:11.032Z,40.76
2019-03-24T16:33:42.914Z,40.70
2019-03-24T16:36:15.652Z,40.55
2019-03-24T16:38:49.030Z,40.37
2019-03-24T16:41:21.150Z,40.13
2019-03-24T16:43:52.975Z,39.99
2019-03-24T16:46:24.675Z,39.90
2019-03-24T16:48:56.450Z,39.74
2019-03-24T16:51:38.168Z,39.75
2019-03-24T16:54:01.667Z,39.66
2019-03-24T16:56:33.401Z,39.52
2019-03-24T16:59:05.194Z,39.45
2019-03-24T17:01:37.001Z,39.50
2019-03-24T17:04:08.841Z,39.50
2019-03-24T17:06:41.651Z,39.50
2019-03-24T17:09:13.392Z,39.61
2019-03-24T17:11:45.139Z,39.65
2019-03-24T17:14:16.872Z,39.66
2019-03-24T17:16:48.669Z,39.74
2019-03-24T17:19:20.414Z,39.69
2019-03-24T17:21:53.141Z,39.85
2019-03-24T17:24:24.885Z,39.91
2019-03-24T17:26:56.632Z,39.96
2019-03-24T17:29:28.450Z,39.98
2019-03-24T17:32:00.192Z,39.91
2019-03-24T17:34:32.110Z,39.96
2019-03-24T17:37:03.854Z,39.89
2019-03-24T17:39:35.596Z,39.90
2019-03-24T17:42:07.416Z,39.94
2019-03-24T17:44:39.170Z,40.13
2019-03-24T17:47:11.008Z,40.18
2019-03-24T17:49:42.794Z,40.25
2019-03-24T17:52:14.564Z,40.18
2019-03-24T17:54:46.296Z,40.33
2019-03-24T17:57:17.996Z,40.28
2019-03-24T17:59:49.738Z,40.31
2019-03-24T18:02:21.477Z,40.42
2019-03-24T18:04:53.323Z,40.48
2019-03-24T18:07:25.094Z,40.48
2019-03-24T18:09:56.940Z,40.54
2019-03-24T18:12:28.687Z,40.56
2019-03-24T18:15:00.502Z,40.60
2019-03-24T18:17:32.244Z,40.65
2019-03-24T18:20:03.992Z,40.66
2019-03-24T18:22:35.709Z,40.72
2019-03-24T18:25:09.069Z,40.76
2019-03-24T18:27:40.768Z,40.83
2019-03-24T18:30:12.905Z,40.82
2019-03-24T18:32:44.742Z,40.89
2019-03-24T18:35:16.502Z,40.94
2019-03-24T18:37:48.239Z,40.98
2019-03-24T18:40:20.745Z,41.05
2019-03-24T18:42:52.957Z,41.09
2019-03-24T18:45:26.156Z,41.19
2019-03-24T18:47:57.976Z,41.21
2019-03-24T18:50:29.998Z,41.34
2019-03-24T18:53:01.972Z,41.51
2019-03-24T18:55:33.963Z,41.68
2019-03-24T18:58:06.241Z,41.88
2019-03-24T19:00:38.149Z,42.04
2019-03-24T19:03:10.042Z,42.24
2019-03-24T19:05:43.499Z,42.47
2019-03-24T19:08:16.472Z,42.64
2019-03-24T19:10:48.567Z,42.82
2019-03-24T19:13:20.983Z,43.00
2019-03-24T19:15:52.725Z,43.18
2019-03-24T19:18:24.953Z,43.31
2019-03-24T19:20:56.780Z,43.52
2019-03-24T19:23:28.569Z,43.67
2019-03-24T19:26:00.350Z,43.78
2019-03-24T19:28:32.077Z,43.84
2019-03-24T19:31:06.185Z,43.92
2019-03-24T19:33:37.616Z,43.94
2019-03-24T19:36:09.746Z,43.95
2019-03-24T19:38:42.849Z,43.94
2019-03-24T19:41:14.650Z,43.96
2019-03-24T19:43:46.403Z,43.95
2019-03-24T19:46:18.164Z,43.95
2019-03-24T19:48:49.956Z,43.93
2019-03-24T19:51:22.016Z,43.94
2019-03-24T19:53:53.980Z,43.96
2019-03-24T19:56:25.758Z,43.98
2019-03-24T19:58:57.678Z,44.05
2019-03-24T20:01:29.482Z,44.14
2019-03-24T20:04:01.837Z,44.17
2019-03-24T20:06:34.893Z,44.22
2019-03-24T20:09:09.253Z,44.26
2019-03-24T20:11:41.127Z,44.32
2019-03-24T20:14:13.381Z,44.43
2019-03-24T20:16:45.450Z,44.40
2019-03-24T20:19:17.362Z,44.42
2019-03-24T20:21:49.328Z,44.47
2019-03-24T20:24:21.053Z,44.43
2019-03-24T20:26:52.780Z,44.38
2019-03-24T20:29:24.467Z,44.39
2019-03-24T20:31:56.182Z,44.38
2019-03-24T20:34:27.864Z,44.40
2019-03-24T20:36:59.617Z,44.39
2019-03-24T20:39:31.496Z,44.36
2019-03-24T20:42:03.395Z,44.38
2019-03-24T20:44:35.169Z,44.42
2019-03-24T20:47:07.023Z,44.41
2019-03-24T20:49:38.791Z,44.41
2019-03-24T20:52:10.536Z,44.39
2019-03-24T20:54:42.293Z,44.37
2019-03-24T20:57:14.056Z,44.36
2019-03-24T20:59:45.725Z,44.30
2019-03-24T21:02:17.591Z,44.27
2019-03-24T21:04:49.443Z,44.24
2019-03-24T21:07:23.910Z,44.24
2019-03-24T21:09:56.038Z,44.22
2019-03-24T21:12:28.161Z,44.25
2019-03-24T21:14:59.917Z,44.29
2019-03-24T21:17:31.899Z,44.27
2019-03-24T21:20:03.701Z,44.29
2019-03-24T21:22:35.430Z,44.31
2019-03-24T21:25:07.373Z,44.32
2019-03-24T21:27:40.402Z,44.32
2019-03-24T21:30:12.735Z,44.37
2019-03-24T21:32:44.850Z,44.41
2019-03-24T21:35:16.932Z,44.41
2019-03-24T21:37:48.699Z,44.42
2019-03-24T21:40:20.564Z,44.44
2019-03-24T21:42:52.429Z,44.47
2019-03-24T21:45:24.382Z,44.47
2019-03-24T21:47:56.274Z,44.47
2019-03-24T21:50:28.167Z,44.48
2019-03-24T21:53:00.040Z,44.45
2019-03-24T21:55:32.935Z,44.42
2019-03-24T21:58:05.915Z,44.44
2019-03-24T22:00:38.533Z,44.41
2019-03-24T22:03:10.386Z,44.40
2019-03-24T22:05:42.173Z,44.42
2019-03-24T22:08:13.864Z,44.43
2019-03-24T22:10:45.712Z,44.49
2019-03-24T22:13:17.552Z,44.54
2019-03-24T22:15:49.308Z,44.52
2019-03-24T22:18:21.114Z,44.51
2019-03-24T22:20:53.359Z,44.54
2019-03-24T22:23:25.025Z,44.62
2019-03-24T22:25:56.788Z,44.67
2019-03-24T22:28:28.525Z,44.69
2019-03-24T22:31:00.309Z,44.71
2019-03-24T22:33:32.286Z,44.71
2019-03-24T22:36:03.995Z,44.79
2019-03-24T22:38:35.768Z,44.79
2019-03-24T22:41:07.471Z,44.83
2019-03-24T22:43:39.168Z,44.89
2019-03-24T22:46:10.951Z,44.95
2019-03-24T22:48:42.723Z,45.02
2019-03-24T22:51:14.421Z,45.05
2019-03-24T22:53:46.132Z,45.13
2019-03-24T22:56:18.147Z,45.19
2019-03-24T22:58:49.968Z,45.24
2019-03-24T23:01:21.727Z,45.24
2019-03-24T23:03:53.535Z,45.28
2019-03-24T23:06:25.301Z,45.26
2019-03-24T23:08:57.029Z,45.26
2019-03-24T23:11:28.827Z,45.23
2019-03-24T23:14:00.570Z,45.24
2019-03-24T23:16:32.354Z,45.22
2019-03-24T23:19:04.159Z,45.24
2019-03-24T23:21:35.873Z,45.24
2019-03-24T23:24:15.401Z,45.24
2019-03-24T23:26:41.106Z,45.28
2019-03-24T23:29:12.779Z,45.27
2019-03-24T23:31:44.463Z,45.29
2019-03-24T23:34:16.228Z,45.32
2019-03-24T23:36:48.013Z,45.34
2019-03-24T23:39:19.765Z,45.37
2019-03-24T23:41:51.528Z,45.46
2019-03-24T23:44:23.439Z,45.45
2019-03-24T23:46:55.294Z,45.48
2019-03-24T23:49:27.039Z,45.47
2019-03-24T23:51:58.776Z,45.43
2019-03-24T23:54:31.479Z,45.45
2019-03-24T23:57:03.151Z,45.52
2019-03-24T23:59:34.851Z,45.47
